createdAt,value
2018-04-22T14:16:02.097Z,12.32
2018-04-22T14:18:29.720Z,12.74
2018-04-22T14:20:57.382Z,13.30
2018-04-22T14:23:24.931Z,13.02
2018-04-22T14:25:52.482Z,13.46
2018-04-22T14:28:20.891Z,12.52
2018-04-22T14:30:49.010Z,13.06
2018-04-22T14:33:16.671Z,13.31
2018-04-22T14:35:44.258Z,13.80
2018-04-22T14:38:11.807Z,13.70
2018-04-22T14:40:39.415Z,13.34
2018-04-22T14:43:07.029Z,12.94
2018-04-22T14:45:46.379Z,11.62
2018-04-22T14:48:13.932Z,12.49
2018-04-22T14:50:42.466Z,13.24
2018-04-22T14:53:10.995Z,14.80
2018-04-22T14:55:38.538Z,14.32
2018-04-22T14:58:06.121Z,15.38
2018-04-22T15:00:33.978Z,14.92
2018-04-22T15:03:01.653Z,14.38
2018-04-22T15:05:29.234Z,14.11
2018-04-22T15:07:56.823Z,14.55
2018-04-22T15:10:24.479Z,14.70
2018-04-22T15:12:52.501Z,14.41
2018-04-22T15:15:20.155Z,14.43
2018-04-22T15:17:47.741Z,16.92
2018-04-22T15:20:15.285Z,16.39
2018-04-22T15:22:43.166Z,16.30
2018-04-22T15:25:10.763Z,16.07
2018-04-22T15:27:38.523Z,15.96
2018-04-22T15:30:06.631Z,16.97
2018-04-22T15:32:34.542Z,17.17
2018-04-22T15:35:02.174Z,17.47
2018-04-22T15:37:31.121Z,16.49
2018-04-22T15:39:59.165Z,17.17
2018-04-22T15:42:27.004Z,16.90
2018-04-22T15:44:55.642Z,17.34
2018-04-22T15:47:23.493Z,17.93
2018-04-22T15:49:51.932Z,18.82
2018-04-22T15:52:20.214Z,19.90
2018-04-22T15:54:47.813Z,20.32
2018-04-22T15:57:16.131Z,19.41
2018-04-22T15:59:43.738Z,20.41
2018-04-22T16:02:11.618Z,20.02
2018-04-22T16:04:39.286Z,20.06
2018-04-22T16:07:06.891Z,20.15
2018-04-22T16:09:34.927Z,19.99
2018-04-22T16:12:03.305Z,20.11
2018-04-22T16:14:31.016Z,20.64
2018-04-22T16:16:59.034Z,22.08
2018-04-22T16:19:26.591Z,23.34
2018-04-22T16:21:54.725Z,23.67
2018-04-22T16:24:22.276Z,23.73
2018-04-22T16:26:50.619Z,23.94
2018-04-22T16:29:19.054Z,22.56
2018-04-22T16:31:47.571Z,21.41
2018-04-22T16:34:15.121Z,22.00
2018-04-22T16:36:42.938Z,23.97
2018-04-22T16:39:10.599Z,27.63
2018-04-22T16:41:38.209Z,28.65
2018-04-22T16:44:05.818Z,31.15
2018-04-22T16:46:33.413Z,30.47
2018-04-22T16:49:01.884Z,31.51
2018-04-22T16:51:29.437Z,31.93
2018-04-22T16:53:57.030Z,33.09
2018-04-22T16:56:24.586Z,33.97
2018-04-22T16:58:53.126Z,34.62
2018-04-22T17:01:22.634Z,35.37
2018-04-22T17:03:50.182Z,36.42
2018-04-22T17:06:19.430Z,37.30
2018-04-22T17:08:48.906Z,37.41
2018-04-22T17:11:16.454Z,39.00
2018-04-22T17:13:43.997Z,39.09
2018-04-22T17:16:11.966Z,41.13
2018-04-22T17:18:39.506Z,40.17
2018-04-22T17:21:07.161Z,40.06
2018-04-22T17:23:34.822Z,41.04
2018-04-22T17:26:02.480Z,40.98
2018-04-22T17:28:30.926Z,42.68
2018-04-22T17:30:58.473Z,42.57
2018-04-22T17:33:26.130Z,43.01
2018-04-22T17:35:53.683Z,43.18
2018-04-22T17:38:22.195Z,44.09
2018-04-22T17:40:51.393Z,45.12
2018-04-22T17:43:18.945Z,45.80
2018-04-22T17:45:46.746Z,46.06
2018-04-22T17:48:14.703Z,46.11
2018-04-22T17:50:42.293Z,46.12
2018-04-22T17:53:09.937Z,46.36
2018-04-22T17:55:37.559Z,46.47
2018-04-22T17:58:06.158Z,46.99
2018-04-22T18:00:33.785Z,47.00
2018-04-22T18:03:01.426Z,48.71
2018-04-22T18:05:29.699Z,50.62
2018-04-22T18:07:59.055Z,50.52
2018-04-22T18:10:26.635Z,50.24
2018-04-22T18:12:54.232Z,50.33
2018-04-22T18:15:21.835Z,50.08
2018-04-22T18:17:49.387Z,50.25
2018-04-22T18:20:16.973Z,50.27
2018-04-22T18:22:44.561Z,50.22
2018-04-22T18:25:12.110Z,50.58
2018-04-22T18:27:39.711Z,50.44
2018-04-22T18:30:07.954Z,50.42
2018-04-22T18:32:36.469Z,51.31
2018-04-22T18:35:04.079Z,52.44
2018-04-22T18:37:31.690Z,53.26
2018-04-22T18:39:59.295Z,53.80
2018-04-22T18:42:26.846Z,53.88
2018-04-22T18:44:54.458Z,54.38
2018-04-22T18:47:22.062Z,53.72
2018-04-22T18:49:50.478Z,53.85
2018-04-22T18:52:18.093Z,54.34
2018-04-22T18:54:45.699Z,54.70
2018-04-22T18:57:13.306Z,56.51
2018-04-22T18:59:41.910Z,56.11
2018-04-22T19:02:09.481Z,57.24
2018-04-22T19:04:38.019Z,57.04
2018-04-22T19:07:05.593Z,57.39
2018-04-22T19:09:33.221Z,57.76
2018-04-22T19:12:00.791Z,59.15
2018-04-22T19:14:28.402Z,59.20
2018-04-22T19:16:56.013Z,57.81
2018-04-22T19:19:23.608Z,57.33
2018-04-22T19:21:51.149Z,55.91
2018-04-22T19:24:18.737Z,54.83
2018-04-22T19:26:46.375Z,54.40
2018-04-22T19:29:13.958Z,53.90
2018-04-22T19:31:41.545Z,54.63
2018-04-22T19:34:09.179Z,54.87
2018-04-22T19:36:36.791Z,55.17
2018-04-22T19:39:04.448Z,55.50
2018-04-22T19:41:31.998Z,56.12
2018-04-22T19:43:59.611Z,56.89
2018-04-22T19:46:27.205Z,57.59
2018-04-22T19:48:54.879Z,57.46
2018-04-22T19:51:22.422Z,57.86
2018-04-22T19:53:50.027Z,58.29
2018-04-22T19:56:18.189Z,58.88
2018-04-22T19:58:45.802Z,58.78
2018-04-22T20:01:13.721Z,59.02
2018-04-22T20:03:41.314Z,59.80
2018-04-22T20:06:09.252Z,60.16
2018-04-22T20:08:36.858Z,60.79
2018-04-22T20:11:04.405Z,61.86
2018-04-22T20:13:32.827Z,63.52
2018-04-22T20:16:01.099Z,63.94
2018-04-22T20:18:29.547Z,63.26
2018-04-22T20:20:57.158Z,63.67
2018-04-22T20:23:25.580Z,63.80
2018-04-22T20:25:53.599Z,66.05
2018-04-22T20:28:22.507Z,66.90
2018-04-22T20:30:50.137Z,68.12
2018-04-22T20:33:17.684Z,67.92
2018-04-22T20:35:46.069Z,66.71
2018-04-22T20:38:13.734Z,65.02
2018-04-22T20:40:41.332Z,62.59
2018-04-22T20:43:08.934Z,61.46
2018-04-22T20:45:36.506Z,59.66
2018-04-22T20:48:04.728Z,58.89
2018-04-22T20:50:32.283Z,59.57
2018-04-22T20:52:59.931Z,61.14
2018-04-22T20:55:27.478Z,61.91
2018-04-22T20:57:55.076Z,63.25
2018-04-22T21:00:22.835Z,64.41
2018-04-22T21:02:50.445Z,64.71
2018-04-22T21:05:17.993Z,65.58
2018-04-22T21:07:45.602Z,65.61
2018-04-22T21:10:13.305Z,65.79
2018-04-22T21:12:40.923Z,67.03
2018-04-22T21:15:08.470Z,66.98
2018-04-22T21:17:36.062Z,66.95
2018-04-22T21:20:03.675Z,66.59
2018-04-22T21:22:31.339Z,66.91
2018-04-22T21:24:58.945Z,67.01
2018-04-22T21:27:27.374Z,68.03
2018-04-22T21:29:54.986Z,68.71
2018-04-22T21:32:22.597Z,69.38
2018-04-22T21:34:50.251Z,69.56
2018-04-22T21:37:18.291Z,67.94
2018-04-22T21:39:45.943Z,67.16
2018-04-22T21:42:13.567Z,66.72
2018-04-22T21:44:41.172Z,67.13
2018-04-22T21:47:08.713Z,67.82
2018-04-22T21:49:36.614Z,68.47
2018-04-22T21:52:04.159Z,68.21
2018-04-22T21:54:32.513Z,68.04
2018-04-22T21:57:01.611Z,68.43
2018-04-22T21:59:29.285Z,68.16
2018-04-22T22:01:56.835Z,68.14
2018-04-22T22:04:24.426Z,68.57
2018-04-22T22:06:53.022Z,69.30
2018-04-22T22:09:20.613Z,70.59
2018-04-22T22:11:48.222Z,70.40
2018-04-22T22:14:15.887Z,70.84
2018-04-22T22:16:43.437Z,71.26
2018-04-22T22:19:11.978Z,71.40
2018-04-22T22:21:39.595Z,71.77
2018-04-22T22:24:07.203Z,72.22
2018-04-22T22:26:34.749Z,71.69
2018-04-22T22:29:02.348Z,71.16
2018-04-22T22:31:29.958Z,69.96
2018-04-22T22:33:57.699Z,69.56
2018-04-22T22:36:25.307Z,69.45
2018-04-22T22:38:52.895Z,70.31
2018-04-22T22:41:20.603Z,71.16
2018-04-22T22:43:48.965Z,72.15
2018-04-22T22:46:16.590Z,73.29
2018-04-22T22:48:44.226Z,73.85
2018-04-22T22:51:11.784Z,74.50
2018-04-22T22:53:39.370Z,74.89
2018-04-22T22:56:07.027Z,75.25
2018-04-22T22:58:34.634Z,72.91
2018-04-22T23:01:02.246Z,71.86
2018-04-22T23:03:29.870Z,71.25
2018-04-22T23:05:57.474Z,70.80
2018-04-22T23:08:25.018Z,71.75
2018-04-22T23:10:52.682Z,72.42
2018-04-22T23:13:20.285Z,73.92
2018-04-22T23:15:47.893Z,74.93
2018-04-22T23:18:15.438Z,75.46
2018-04-22T23:20:43.058Z,75.81
2018-04-22T23:23:10.707Z,75.59
2018-04-22T23:25:38.258Z,75.79
2018-04-22T23:28:05.849Z,77.42
2018-04-22T23:30:33.503Z,75.49
2018-04-22T23:33:01.055Z,75.24
2018-04-22T23:35:28.641Z,75.59
2018-04-22T23:37:57.188Z,75.73
2018-04-22T23:40:24.867Z,75.52
2018-04-22T23:42:52.494Z,74.89
2018-04-22T23:45:20.042Z,72.14
2018-04-22T23:47:47.703Z,70.71
2018-04-22T23:50:15.271Z,69.50
2018-04-22T23:52:42.936Z,68.36
2018-04-22T23:55:10.534Z,67.56
2018-04-22T23:57:38.147Z,67.56
